METAR stanice u blizini

 

LYBE - Beograd / Surčin, Srbija
Ažurirano: 25/11/2020 21:00
Mist, Delimično oblačno
Mist, Delimično oblačno
 Pravac vetra SI
Vetar: SI 9 km/h
Temperatura: 1°C
Osećaj hladnoće: -2°C
Tačka rose: 0°C
Vlažnost: 93%
Pritisak: 1027 hPa
Pregled: Mist
Oblaci: Partly Cloudy
Vidljivost: 4 km
2020/11/25 20:00 LYBE 252000Z 04005KT 3500 BR NSC 01/00 Q1027 NOSIG
LYBT - Beograd / Batajnica, Srbija
Ažurirano: 25/11/2020 21:00
Mist, Delimično oblačno
Mist, Delimično oblačno
 Pravac vetra S
Vetar: S 9 km/h
Temperatura: 0°C
Osećaj hladnoće: -3°C
Tačka rose: 0°C
Vlažnost: 100%
Pritisak: 1027 hPa
Pregled: Mist
Oblaci: Partly Cloudy
Vidljivost: 5 km
2020/11/25 20:00 LYBT 252000Z 36005KT 5000 BR NSC 00/00 Q1027 NOSIG
LYVR - Vršac, Srbija
Ažurirano: 25/11/2020 21:00
Freezing fog, Oblačno
Freezing fog, Oblačno
 Pravac vetra SI
Vetar: SI 6 km/h
Temperatura: -3°C
Tačka rose: -3°C
Vlažnost: 100%
Pritisak: 1027 hPa
Pregled: Freezing Fog
Oblaci: Oblačno
Vidljivost: 0 km
Cloud details: Oblačno 183 m
2020/11/25 20:00 LYVR 252000Z AUTO 05003KT 0350 R19/0400N R01/0800U FZFG VV006 M03/M03 Q1027
 
LYKV - Lađevci, Srbija
Ažurirano: 25/11/2020 21:00
Mist, Delimično oblačno
Mist, Delimično oblačno
 Pravac vetra calm
Vetar: Tišina
Temperatura: -2°C
Tačka rose: -2°C
Vlažnost: 100%
Pritisak: 1026 hPa
Pregled: Mist
Oblaci: Partly Cloudy
Vidljivost: 5 km
2020/11/25 20:00 LYKV 252000Z 00000KT 5000 BR NSC M02/M02 Q1026 NOSIG
LYNI - Niš, Srbija
Ažurirano: 25/11/2020 21:00
Partly Cloudy
Partly Cloudy
 Pravac vetra IJI
Vetar: IJI 7 km/h
Temperatura: 1°C
Osećaj hladnoće: -2°C
Tačka rose: -1°C
Vlažnost: 87%
Pritisak: 1026 hPa
Oblaci: Partly Cloudy
Vidljivost: 6 km
2020/11/25 20:00 LYNI 252000Z 11004KT 6000 NSC 01/M01 Q1026 NOSIG
BKPR - Priština, Srbija
Ažurirano: 25/11/2020 21:00
Partly Cloudy
Partly Cloudy
 Pravac vetra calm
Vetar: Tišina
Temperatura: -1°C
Tačka rose: -4°C
Vlažnost: 80%
Pritisak: 1026 hPa
Oblaci: Partly Cloudy
Vidljivost: 6 km
2020/11/25 20:00 BKPR 252000Z 00000KT 6000 NSC M01/M04 Q1026 NOSIG RMK 17010095
 
LHPP - Pecs / Pogany, Hungary
Ažurirano: 25/11/2020 18:45
NOT Current
Mist, Oblačno
Mist, Oblačno
 Pravac vetra J
Vetar: J 4 km/h
Temperatura: 3°C
Tačka rose: 1°C
Vlažnost: 87%
Pritisak: 1026 hPa
Pregled: Mist
Oblaci: Oblačno
Vidljivost: 4 km
Cloud details: Oblačno 305 m
2020/11/25 17:45 LHPP 251745Z 18002KT 4000 BR OVC010 03/01 Q1026
LHUD - Szeged, Hungary
Ažurirano: 04/07/2019 01:45
NOT Current
Vedro
Vedro
 Pravac vetra S
Vetar: S 7 km/h
Temperatura: 18°C
Tačka rose: 13°C
Vlažnost: 73%
Pritisak: 1019 hPa
Pregled: Vedro
Vidljivost: greater than 10 km
2019/07/03 23:45 LHUD 032345Z 35004KT CAVOK 18/13 Q1019
LRTR - Timisoara, Romania
Ažurirano: 25/11/2020 21:00
Magla, Oblačno
Magla, Oblačno
 Pravac vetra S
Vetar: S 6 km/h
Temperatura: 0°C
Tačka rose: 0°C
Vlažnost: 100%
Pritisak: 1027 hPa
Pregled: Magla
Oblaci: Oblačno
Vidljivost: 0 km
Cloud details: Oblačno 61 m
2020/11/25 20:00 LRTR 252000Z 01003KT 0200 R11/0600N R29/0650N FG VV002 00/00 Q1027
 
LRCV - Craiova, Romania
Ažurirano: 25/11/2020 21:00
Freezing fog, Delimično oblačno
Freezing fog, Delimično oblačno
 Pravac vetra Z
Vetar: Z 9 km/h
Temperatura: 0°C
Osećaj hladnoće: -3°C
Tačka rose: -1°C
Vlažnost: 93%
Pritisak: 1025 hPa
Pregled: Freezing Fog
Oblaci: Partly Cloudy
Vidljivost: 0 km
2020/11/25 20:00 LRCV 252000Z 27005KT 0400 FZFG NSC M00/M01 Q1025
LBSF - Sofia, Bulgaria
Ažurirano: 25/11/2020 21:00
Freezing fog, Oblačno
Freezing fog, Oblačno
 Pravac vetra varies
Vetar: varies 4 km/h
Temperatura: -1°C
Tačka rose: -1°C
Vlažnost: 100%
Pritisak: 1026 hPa
Pregled: Freezing Fog
Oblaci: Oblačno
Vidljivost: 0 km
Cloud details: Oblačno 30 m
2020/11/25 20:00 LBSF 252000Z VRB02KT 0350 R27/0400N FZFG VV001 M01/M01 Q1026 NOSIG
LWSK - Skoplje, Makedonija
Ažurirano: 25/11/2020 21:00
Partly Cloudy
Partly Cloudy
 Pravac vetra calm
Vetar: Tišina
Temperatura: -2°C
Tačka rose: -4°C
Vlažnost: 86%
Pritisak: 1027 hPa
Oblaci: Partly Cloudy
Vidljivost: 6 km
2020/11/25 20:00 LWSK 252000Z 00000KT 6000 NSC M02/M04 Q1027 NOSIG
 
LYPG - Podgorica, Crna Gora
Ažurirano: 25/11/2020 21:00
Vedro
Vedro
 Pravac vetra S
Vetar: S 7 km/h
Temperatura: 4°C
Osećaj hladnoće: 2°C
Tačka rose: 0°C
Vlažnost: 75%
Pritisak: 1024 hPa
Pregled: Vedro
Vidljivost: greater than 10 km
2020/11/25 20:00 LYPG 252000Z 36004KT 340V070 CAVOK 04/00 Q1024 NOSIG
LQSA - Sarajevo, Bosna i Hercegovina
Ažurirano: 25/11/2020 21:00
Mist, Delimično oblačno
Mist, Delimično oblačno
 Pravac vetra JJZ
Vetar: JJZ 2 km/h
Temperatura: -3°C
Tačka rose: -3°C
Vlažnost: 100%
Pritisak: 1025 hPa
Pregled: Mist
Oblaci: Partly Cloudy
Vidljivost: 4 km
2020/11/25 20:00 LQSA 252000Z 21001KT 4000 BR NSC M03/M03 Q1025 NOSIG
LDOS - Osijek, Hrvatksa
Ažurirano: 25/11/2020 21:00
Oblačno
Oblačno
 Pravac vetra SZ
Vetar: SZ 6 km/h
Temperatura: 4°C
Tačka rose: 2°C
Vlažnost: 87%
Pritisak: 1026 hPa
Oblaci: Oblačno
Vidljivost: 8 km
Cloud details: Oblačno 457 m
2020/11/25 20:00 LDOS 252000Z 32003KT 8000 OVC015 04/02 Q1026